Time;durP1;ratioP1;P1;durP2;ratioP2;P2;SDS_P1;SDS_P2;PMS_P1;PMS_P2;Temp;Humidity;BMP_temperature;BMP_pressure;BME280_temperature;BME280_humidity;BME280_pressure;Samples;Min_cycle;Max_cycle;Signal;HPM_P1;HPM_P2
2021/12/25 00:01:42;;;;;;;16.58;11.10;;;;;;;;;;5060425;28;20032;-82
2021/12/25 00:04:08;;;;;;;15.90;11.02;;;;;;;;;;5046950;28;20033;-83
2021/12/25 00:06:34;;;;;;;19.77;11.48;;;;;;;;;;5069346;28;20048;-82
2021/12/25 00:09:00;;;;;;;15.55;11.75;;;;;;;;;;5065862;28;20051;-83
2021/12/25 00:11:26;;;;;;;15.43;11.98;;;;;;;;;;5062410;28;20509;-81
2021/12/25 00:13:52;;;;;;;18.23;12.82;;;;;;;;;;5046402;28;20044;-84
2021/12/25 00:16:19;;;;;;;16.25;12.18;;;;;;;;;;5047422;28;20483;-83
2021/12/25 00:18:45;;;;;;;17.95;13.55;;;;;;;;;;5064364;28;20041;-84
2021/12/25 00:21:11;;;;;;;19.15;13.88;;;;;;;;;;5081408;28;20047;-82
2021/12/25 00:23:37;;;;;;;17.00;13.07;;;;;;;;;;5079265;28;20040;-80
2021/12/25 00:26:09;;;;;;;20.60;14.70;;;;;;;;;;5072425;28;20037;-83
2021/12/25 00:36:12;;;;;;;20.73;13.33;;;;;;;;;;5068527;28;20051;-81
2021/12/25 00:38:40;;;;;;;26.20;18.67;;;;;;;;;;5065761;28;20047;-83
2021/12/25 00:41:06;;;;;;;23.77;17.90;;;;;;;;;;5050167;28;20371;-84
2021/12/25 00:43:32;;;;;;;27.67;18.88;;;;;;;;;;5050087;28;20062;-82
2021/12/25 00:45:58;;;;;;;27.25;18.40;;;;;;;;;;5050793;28;20056;-82
2021/12/25 00:48:24;;;;;;;26.08;18.20;;;;;;;;;;5067856;28;20063;-81
2021/12/25 00:50:50;;;;;;;25.30;18.13;;;;;;;;;;5050172;28;20044;-84
2021/12/25 00:53:16;;;;;;;27.25;19.25;;;;;;;;;;5083970;28;20070;-84
2021/12/25 00:55:42;;;;;;;29.33;19.63;;;;;;;;;;5048750;28;20048;-82
2021/12/25 00:58:08;;;;;;;27.88;20.15;;;;;;;;;;5048052;28;20053;-83
2021/12/25 01:00:34;;;;;;;30.40;19.67;;;;;;;;;;5047363;28;20032;-82
2021/12/25 01:03:00;;;;;;;29.95;20.15;;;;;;;;;;5049625;28;20032;-81
2021/12/25 01:05:26;;;;;;;25.38;19.75;;;;;;;;;;5066698;28;20041;-82
2021/12/25 01:07:52;;;;;;;24.55;18.70;;;;;;;;;;5048855;28;20032;-82
2021/12/25 01:10:19;;;;;;;27.52;19.85;;;;;;;;;;5058250;28;20046;-84
2021/12/25 01:15:32;;;;;;;29.95;21.08;;;;;;;;;;5049828;28;20045;-85
2021/12/25 01:31:43;;;;;;;28.75;20.63;;;;;;;;;;5050613;28;20075;-82
2021/12/25 01:39:49;;;;;;;25.55;18.45;;;;;;;;;;5045323;28;20072;-82
2021/12/25 01:47:56;;;;;;;26.42;18.88;;;;;;;;;;5007896;28;20049;-80
2021/12/25 01:50:24;;;;;;;25.33;18.40;;;;;;;;;;4989259;28;20053;-82
2021/12/25 01:52:50;;;;;;;25.45;18.60;;;;;;;;;;5026223;28;20067;-83
2021/12/25 01:55:18;;;;;;;26.05;19.33;;;;;;;;;;5047563;28;20033;-82
2021/12/25 01:57:44;;;;;;;27.00;19.25;;;;;;;;;;5040353;28;20025;-82
2021/12/25 02:00:19;;;;;;;27.08;19.60;;;;;;;;;;5044075;28;20129;-81
2021/12/25 02:02:45;;;;;;;25.90;19.15;;;;;;;;;;5062159;28;20055;-82
2021/12/25 02:05:11;;;;;;;28.48;20.48;;;;;;;;;;5027948;28;20464;-81
2021/12/25 02:07:37;;;;;;;26.80;19.80;;;;;;;;;;5030196;28;20045;-81
2021/12/25 02:10:04;;;;;;;29.38;20.00;;;;;;;;;;5029220;28;20041;-82
2021/12/25 02:12:32;;;;;;;28.25;21.27;;;;;;;;;;5044445;28;20041;-82
2021/12/25 02:15:03;;;;;;;32.47;20.33;;;;;;;;;;5028397;28;20047;-81
2021/12/25 02:17:49;;;;;;;28.23;21.42;;;;;;;;;;5046509;28;20041;-82
2021/12/25 02:20:23;;;;;;;30.90;22.30;;;;;;;;;;5050479;28;20049;-80
2021/12/25 02:22:51;;;;;;;28.38;20.95;;;;;;;;;;5028339;28;20048;-81
2021/12/25 02:25:17;;;;;;;31.48;22.77;;;;;;;;;;5064446;28;20080;-82
2021/12/25 02:27:46;;;;;;;31.05;22.60;;;;;;;;;;5046741;28;20044;-81
2021/12/25 02:30:12;;;;;;;36.92;24.17;;;;;;;;;;5028941;28;20451;-80
2021/12/25 02:32:38;;;;;;;34.00;23.77;;;;;;;;;;5027192;28;20037;-83
2021/12/25 02:35:04;;;;;;;33.70;24.13;;;;;;;;;;5043288;28;20376;-81
2021/12/25 02:37:30;;;;;;;35.97;23.55;;;;;;;;;;5027282;28;20453;-83
2021/12/25 02:39:56;;;;;;;32.63;24.77;;;;;;;;;;5045685;28;20072;-81
2021/12/25 02:42:22;;;;;;;35.17;23.30;;;;;;;;;;5029054;28;20036;-82
2021/12/25 02:44:48;;;;;;;36.83;25.80;;;;;;;;;;5055496;28;20041;-81
2021/12/25 02:47:19;;;;;;;36.17;25.10;;;;;;;;;;5043610;28;20056;-81
2021/12/25 02:49:49;;;;;;;39.58;26.30;;;;;;;;;;5060542;28;20041;-80
2021/12/25 02:52:16;;;;;;;38.00;25.92;;;;;;;;;;5025554;28;20048;-80
2021/12/25 02:54:43;;;;;;;38.38;27.23;;;;;;;;;;5027357;28;20345;-81
2021/12/25 02:57:09;;;;;;;34.90;24.85;;;;;;;;;;5025442;28;20131;-82
2021/12/25 02:59:36;;;;;;;36.08;25.48;;;;;;;;;;5042915;28;20423;-84
2021/12/25 03:02:10;;;;;;;38.42;26.42;;;;;;;;;;5047060;28;20093;-81
2021/12/25 03:04:37;;;;;;;37.13;25.83;;;;;;;;;;5028331;28;20048;-82
2021/12/25 03:07:03;;;;;;;34.28;24.42;;;;;;;;;;5046084;28;20044;-79
2021/12/25 03:09:29;;;;;;;37.58;26.30;;;;;;;;;;5065926;28;20032;-82
2021/12/25 03:11:55;;;;;;;37.70;26.58;;;;;;;;;;5043800;28;20041;-81
2021/12/25 03:14:33;;;;;;;38.05;26.10;;;;;;;;;;5044646;28;20037;-81
2021/12/25 03:17:00;;;;;;;32.30;24.65;;;;;;;;;;5044552;28;20040;-82
2021/12/25 03:19:31;;;;;;;33.80;23.75;;;;;;;;;;5027325;28;20041;-81
2021/12/25 03:21:57;;;;;;;34.45;24.38;;;;;;;;;;5027525;28;20077;-83
2021/12/25 03:24:24;;;;;;;37.78;25.38;;;;;;;;;;5026707;28;20114;-81
2021/12/25 03:26:53;;;;;;;39.47;25.85;;;;;;;;;;5043361;28;20041;-82
2021/12/25 03:29:19;;;;;;;38.55;27.00;;;;;;;;;;5038375;28;20033;-82
2021/12/25 03:31:45;;;;;;;38.05;27.00;;;;;;;;;;5038519;28;20067;-80
2021/12/25 03:34:11;;;;;;;36.40;26.67;;;;;;;;;;5054402;28;20067;-82
2021/12/25 03:36:38;;;;;;;39.83;27.95;;;;;;;;;;5049899;28;20049;-81
2021/12/25 03:39:05;;;;;;;42.78;28.60;;;;;;;;;;5027316;28;20037;-83
2021/12/25 03:41:31;;;;;;;34.95;26.60;;;;;;;;;;5027408;28;20063;-83
2021/12/25 03:43:57;;;;;;;39.10;27.42;;;;;;;;;;5027623;28;20425;-80
2021/12/25 03:46:23;;;;;;;38.88;27.13;;;;;;;;;;5045513;28;20045;-81
2021/12/25 03:59:53;;;;;;;41.30;27.75;;;;;;;;;;5046620;28;20040;-82
2021/12/25 04:02:24;;;;;;;;;;;;;;;;;;5028057;28;20045;-82
2021/12/25 04:04:51;;;;;;;41.40;28.27;;;;;;;;;;5045058;28;19987;-81
2021/12/25 04:09:47;;;;;;;40.30;28.52;;;;;;;;;;5048950;28;20427;-80
2021/12/25 04:12:13;;;;;;;40.88;28.42;;;;;;;;;;5034199;28;20047;-83
2021/12/25 04:14:39;;;;;;;45.00;28.80;;;;;;;;;;5032359;28;20043;-84
2021/12/25 04:17:05;;;;;;;39.35;28.00;;;;;;;;;;5048479;28;20051;-83
2021/12/25 04:19:31;;;;;;;38.92;26.98;;;;;;;;;;5059002;28;20027;-83
2021/12/25 04:22:05;;;;;;;37.47;26.83;;;;;;;;;;5057484;28;20357;-83
2021/12/25 04:24:35;;;;;;;41.40;25.92;;;;;;;;;;5035849;28;20040;-80
2021/12/25 04:27:01;;;;;;;36.47;26.83;;;;;;;;;;5049042;28;20044;-82
2021/12/25 04:47:43;;;;;;;37.58;25.23;;;;;;;;;;5050076;28;20041;-82
2021/12/25 04:49:00;;;;;;;40.25;25.95;;;;;;;;;;5050769;28;20045;-82
2021/12/25 05:04:44;;;;;;;35.33;24.13;;;;;;;;;;5049794;28;20048;-81
2021/12/25 05:07:12;;;;;;;36.55;23.25;;;;;;;;;;5055052;28;20052;-83
2021/12/25 05:09:38;;;;;;;37.97;25.50;;;;;;;;;;5030061;28;20068;-80
2021/12/25 05:12:04;;;;;;;39.80;25.38;;;;;;;;;;5030922;28;20037;-82
2021/12/25 05:14:30;;;;;;;36.20;25.13;;;;;;;;;;5048242;28;20044;-82
2021/12/25 05:16:56;;;;;;;39.90;26.45;;;;;;;;;;5029362;28;20037;-83
2021/12/25 05:19:22;;;;;;;36.72;25.55;;;;;;;;;;5031478;28;20051;-81
2021/12/25 05:21:48;;;;;;;40.88;25.92;;;;;;;;;;5049011;28;20456;-83
2021/12/25 05:24:14;;;;;;;35.00;25.00;;;;;;;;;;5032277;28;20075;-83
2021/12/25 05:26:40;;;;;;;36.25;24.30;;;;;;;;;;5029531;28;20037;-82
2021/12/25 05:29:07;;;;;;;39.15;25.00;;;;;;;;;;5030154;28;20033;-82
2021/12/25 05:31:34;;;;;;;36.58;25.92;;;;;;;;;;5030110;28;20119;-80
2021/12/25 05:34:00;;;;;;;38.05;25.50;;;;;;;;;;5048251;28;20044;-82
2021/12/25 05:36:27;;;;;;;34.70;23.85;;;;;;;;;;5049504;28;20040;-83
2021/12/25 05:38:58;;;;;;;34.33;22.90;;;;;;;;;;5048787;28;20037;-82
2021/12/25 05:41:25;;;;;;;36.75;24.65;;;;;;;;;;5031090;28;20380;-82
2021/12/25 05:43:51;;;;;;;33.47;23.20;;;;;;;;;;5046617;28;20112;-82
2021/12/25 05:46:17;;;;;;;36.13;23.27;;;;;;;;;;5028310;28;20063;-81
2021/12/25 05:48:43;;;;;;;37.33;24.25;;;;;;;;;;5065095;28;20045;-81
2021/12/25 05:51:09;;;;;;;33.03;23.60;;;;;;;;;;5050682;28;20045;-82
2021/12/25 05:53:35;;;;;;;33.90;24.08;;;;;;;;;;5033291;28;20036;-81
2021/12/25 05:56:01;;;;;;;32.65;24.02;;;;;;;;;;5030880;28;20364;-81
2021/12/25 05:58:27;;;;;;;36.70;23.85;;;;;;;;;;5047829;28;20048;-82
2021/12/25 06:00:53;;;;;;;38.15;24.27;;;;;;;;;;5031794;28;20044;-81
2021/12/25 06:03:19;;;;;;;37.78;24.05;;;;;;;;;;5031837;28;20453;-84
2021/12/25 06:05:47;;;;;;;37.67;24.08;;;;;;;;;;5026962;28;20449;-83
2021/12/25 06:08:13;;;;;;;37.30;24.73;;;;;;;;;;5041556;28;20044;-84
2021/12/25 06:10:39;;;;;;;33.20;24.08;;;;;;;;;;5037737;28;20071;-84
2021/12/25 06:13:05;;;;;;;30.25;21.33;;;;;;;;;;5063071;28;20352;-83
2021/12/25 06:15:31;;;;;;;30.92;22.02;;;;;;;;;;5080362;28;20334;-79
2021/12/25 06:17:57;;;;;;;33.90;23.42;;;;;;;;;;5081247;28;20448;-79
2021/12/25 06:20:23;;;;;;;32.70;23.38;;;;;;;;;;5068717;28;20070;-81
2021/12/25 06:22:49;;;;;;;31.95;22.33;;;;;;;;;;5071005;28;20032;-81
2021/12/25 06:25:15;;;;;;;34.05;23.80;;;;;;;;;;5069300;28;20105;-81
2021/12/25 06:27:41;;;;;;;34.15;22.77;;;;;;;;;;5054773;28;20083;-84
2021/12/25 06:30:07;;;;;;;30.92;21.88;;;;;;;;;;5055173;28;20040;-81
2021/12/25 06:32:33;;;;;;;33.60;22.70;;;;;;;;;;5049894;28;20032;-82
2021/12/25 06:34:59;;;;;;;29.50;20.52;;;;;;;;;;5066808;28;20463;-81
2021/12/25 06:37:26;;;;;;;30.45;21.00;;;;;;;;;;5068396;28;20060;-81
2021/12/25 06:39:52;;;;;;;31.48;21.90;;;;;;;;;;5068647;28;20040;-81
2021/12/25 06:42:18;;;;;;;31.48;21.08;;;;;;;;;;5049995;28;20043;-82
2021/12/25 06:44:44;;;;;;;29.38;21.75;;;;;;;;;;5047919;28;20052;-82
2021/12/25 06:47:10;;;;;;;32.47;22.42;;;;;;;;;;5043860;28;20048;-82
2021/12/25 06:49:36;;;;;;;29.85;20.40;;;;;;;;;;5043869;28;20048;-84
2021/12/25 06:52:02;;;;;;;30.48;22.05;;;;;;;;;;5027602;28;20063;-84
2021/12/25 06:54:28;;;;;;;35.13;23.25;;;;;;;;;;5028453;28;20368;-83
2021/12/25 06:56:54;;;;;;;31.55;23.08;;;;;;;;;;5028151;28;20096;-84
2021/12/25 06:59:23;;;;;;;34.92;22.80;;;;;;;;;;5027921;28;20051;-84
2021/12/25 07:01:49;;;;;;;28.92;20.80;;;;;;;;;;5030637;28;20040;-82
2021/12/25 07:04:15;;;;;;;31.83;21.65;;;;;;;;;;5038212;28;20037;-83
2021/12/25 07:06:42;;;;;;;32.15;20.67;;;;;;;;;;5046822;28;20044;-83
2021/12/25 07:09:08;;;;;;;27.55;20.23;;;;;;;;;;5065086;28;20106;-82
2021/12/25 07:11:34;;;;;;;29.15;20.58;;;;;;;;;;5076315;28;20033;-84
2021/12/25 07:14:03;;;;;;;27.38;19.77;;;;;;;;;;5045020;28;20502;-84
2021/12/25 07:16:29;;;;;;;29.20;19.83;;;;;;;;;;5027087;28;20323;-83
2021/12/25 07:18:55;;;;;;;28.00;19.48;;;;;;;;;;5043841;28;20037;-84
2021/12/25 07:21:21;;;;;;;28.13;20.23;;;;;;;;;;5028585;28;20112;-83
2021/12/25 07:23:47;;;;;;;26.15;18.30;;;;;;;;;;5024822;28;20764;-84
2021/12/25 07:26:16;;;;;;;24.10;17.45;;;;;;;;;;5026597;28;20044;-83
2021/12/25 07:28:42;;;;;;;23.65;17.70;;;;;;;;;;5049062;28;20358;-83
2021/12/25 07:31:08;;;;;;;30.08;19.77;;;;;;;;;;5023970;28;20060;-83
2021/12/25 07:33:36;;;;;;;26.65;18.23;;;;;;;;;;5025626;28;20045;-83
2021/12/25 07:36:03;;;;;;;25.55;18.33;;;;;;;;;;5029433;28;20037;-83
2021/12/25 07:38:29;;;;;;;30.23;19.80;;;;;;;;;;5026571;28;20061;-82
2021/12/25 07:40:55;;;;;;;27.20;18.98;;;;;;;;;;5027231;28;20037;-82
2021/12/25 07:43:21;;;;;;;27.45;18.58;;;;;;;;;;5035474;28;20346;-82
2021/12/25 07:45:48;;;;;;;26.30;17.85;;;;;;;;;;5045020;28;20033;-83
2021/12/25 07:48:14;;;;;;;30.85;19.75;;;;;;;;;;5026321;28;20076;-82
2021/12/25 07:50:40;;;;;;;26.27;18.83;;;;;;;;;;5046693;28;20040;-82
2021/12/25 07:53:07;;;;;;;28.00;19.58;;;;;;;;;;5027656;28;20052;-84
2021/12/25 07:55:33;;;;;;;29.08;19.98;;;;;;;;;;5027972;28;20423;-82
2021/12/25 07:58:00;;;;;;;27.00;20.38;;;;;;;;;;5026053;28;20037;-81
2021/12/25 08:00:26;;;;;;;28.05;19.70;;;;;;;;;;5043216;28;20049;-83
2021/12/25 08:02:52;;;;;;;30.25;21.27;;;;;;;;;;5044320;28;20668;-85
2021/12/25 08:05:18;;;;;;;29.00;20.27;;;;;;;;;;5027371;28;20052;-84
2021/12/25 08:07:44;;;;;;;26.35;19.70;;;;;;;;;;5028463;28;20055;-85
2021/12/25 08:10:13;;;;;;;28.83;20.67;;;;;;;;;;5045056;28;20437;-83
2021/12/25 08:12:46;;;;;;;29.70;20.65;;;;;;;;;;5029666;28;20052;-83
2021/12/25 08:15:13;;;;;;;30.73;19.75;;;;;;;;;;5046634;28;20034;-85
2021/12/25 08:17:39;;;;;;;30.98;18.60;;;;;;;;;;5029753;28;20041;-84
2021/12/25 08:20:06;;;;;;;27.98;19.42;;;;;;;;;;5027118;28;20129;-85
2021/12/25 08:22:32;;;;;;;26.42;19.60;;;;;;;;;;5027207;28;20041;-84
2021/12/25 08:24:58;;;;;;;29.10;18.60;;;;;;;;;;5044132;28;20101;-85
2021/12/25 08:27:24;;;;;;;31.40;19.65;;;;;;;;;;5026978;28;20046;-84
2021/12/25 08:29:50;;;;;;;25.42;19.00;;;;;;;;;;5027181;28;20076;-84
2021/12/25 08:32:16;;;;;;;30.27;21.10;;;;;;;;;;5043981;28;20053;-83
2021/12/25 08:34:43;;;;;;;28.73;19.88;;;;;;;;;;5044011;28;20049;-84
2021/12/25 08:37:09;;;;;;;29.17;19.48;;;;;;;;;;5028395;28;20046;-84
2021/12/25 08:39:35;;;;;;;27.80;18.52;;;;;;;;;;5028517;28;20053;-84
2021/12/25 08:42:03;;;;;;;27.95;18.88;;;;;;;;;;5030607;28;20068;-83
2021/12/25 08:44:42;;;;;;;25.33;17.35;;;;;;;;;;5040560;28;20054;-84
2021/12/25 08:47:09;;;;;;;24.67;15.65;;;;;;;;;;5028303;28;20377;-83
2021/12/25 08:49:35;;;;;;;26.98;17.90;;;;;;;;;;5023732;28;20042;-84
2021/12/25 08:52:03;;;;;;;25.67;16.95;;;;;;;;;;5006698;28;20091;-83
2021/12/25 08:54:29;;;;;;;22.65;16.10;;;;;;;;;;5021596;28;20042;-84
2021/12/25 08:56:55;;;;;;;23.58;16.08;;;;;;;;;;5022219;28;20038;-84
2021/12/25 08:59:21;;;;;;;20.73;15.07;;;;;;;;;;5023790;28;20049;-84
2021/12/25 09:01:48;;;;;;;23.42;14.98;;;;;;;;;;5023565;28;20052;-83
2021/12/25 09:04:14;;;;;;;23.70;14.45;;;;;;;;;;5023828;28;20117;-83
2021/12/25 09:06:40;;;;;;;24.10;14.18;;;;;;;;;;5006748;28;20038;-83
2021/12/25 09:09:06;;;;;;;19.30;12.50;;;;;;;;;;5023773;28;20124;-83
2021/12/25 09:11:33;;;;;;;21.33;12.27;;;;;;;;;;5008559;28;20513;-83
2021/12/25 09:13:59;;;;;;;17.73;12.02;;;;;;;;;;5012919;28;20052;-84
2021/12/25 09:16:25;;;;;;;21.70;12.50;;;;;;;;;;5007901;28;20077;-84
2021/12/25 09:18:51;;;;;;;16.73;10.82;;;;;;;;;;5035431;28;20373;-83
2021/12/25 09:21:17;;;;;;;16.80;10.00;;;;;;;;;;5040841;28;20042;-84
2021/12/25 09:23:43;;;;;;;18.80;11.15;;;;;;;;;;5026563;28;20445;-84
2021/12/25 09:26:09;;;;;;;18.58;11.82;;;;;;;;;;5045163;28;20122;-84
2021/12/25 09:28:35;;;;;;;18.23;10.60;;;;;;;;;;5042227;28;20046;-80
2021/12/25 09:31:01;;;;;;;14.10;10.50;;;;;;;;;;5024884;28;20095;-82
2021/12/25 09:33:29;;;;;;;16.90;10.30;;;;;;;;;;5042730;28;20060;-82
2021/12/25 09:35:56;;;;;;;14.93;10.70;;;;;;;;;;5025261;28;20471;-82
2021/12/25 09:38:22;;;;;;;15.00;9.73;;;;;;;;;;5041972;28;20384;-81
2021/12/25 09:40:48;;;;;;;14.38;9.88;;;;;;;;;;5024215;28;20106;-81
2021/12/25 09:43:17;;;;;;;18.10;10.10;;;;;;;;;;5024348;28;20041;-83
2021/12/25 09:45:43;;;;;;;14.60;9.07;;;;;;;;;;5042796;28;20381;-82
2021/12/25 09:48:09;;;;;;;17.05;9.18;;;;;;;;;;5043449;28;20037;-81
2021/12/25 09:50:35;;;;;;;19.60;9.50;;;;;;;;;;5026392;28;20437;-84
2021/12/25 09:53:04;;;;;;;12.30;8.00;;;;;;;;;;5042123;28;20400;-83
2021/12/25 09:55:30;;;;;;;14.55;9.07;;;;;;;;;;5024475;28;20044;-83
2021/12/25 09:57:56;;;;;;;15.77;8.93;;;;;;;;;;5041684;28;20097;-84
2021/12/25 10:00:23;;;;;;;11.55;7.10;;;;;;;;;;5040365;28;20112;-85
2021/12/25 10:02:53;;;;;;;12.13;7.88;;;;;;;;;;5025005;28;20041;-82
2021/12/25 10:05:31;;;;;;;12.32;6.60;;;;;;;;;;5040484;28;20096;-81
2021/12/25 10:08:13;;;;;;;13.35;7.00;;;;;;;;;;5041642;28;20405;-81
2021/12/25 10:10:47;;;;;;;10.23;6.97;;;;;;;;;;5023592;28;20107;-82
2021/12/25 10:13:24;;;;;;;10.77;6.35;;;;;;;;;;5025723;28;20048;-82
2021/12/25 10:15:55;;;;;;;9.38;6.30;;;;;;;;;;5041510;28;20030;-83
2021/12/25 10:18:25;;;;;;;10.57;6.13;;;;;;;;;;5039448;28;20041;-83
2021/12/25 10:20:51;;;;;;;13.90;6.95;;;;;;;;;;5039309;28;20041;-81
2021/12/25 10:23:24;;;;;;;11.77;6.25;;;;;;;;;;5022365;28;20072;-81
2021/12/25 10:25:55;;;;;;;11.00;6.18;;;;;;;;;;5025403;28;20056;-82
2021/12/25 10:28:27;;;;;;;8.43;5.40;;;;;;;;;;5040773;28;20041;-82
2021/12/25 10:31:00;;;;;;;8.85;5.55;;;;;;;;;;5040837;28;20053;-84
2021/12/25 10:33:26;;;;;;;9.90;5.30;;;;;;;;;;5041130;28;20038;-82
2021/12/25 10:35:52;;;;;;;10.82;5.20;;;;;;;;;;5040757;28;20048;-83
2021/12/25 10:38:18;;;;;;;10.05;4.72;;;;;;;;;;5023069;28;20392;-83
2021/12/25 10:40:44;;;;;;;10.07;5.13;;;;;;;;;;5038144;28;20042;-80
2021/12/25 10:43:19;;;;;;;9.20;4.95;;;;;;;;;;5037486;28;20041;-79
2021/12/25 10:45:57;;;;;;;6.43;4.25;;;;;;;;;;5018476;28;20099;-80
2021/12/25 10:48:29;;;;;;;7.05;4.78;;;;;;;;;;5041903;28;20034;-81
2021/12/25 10:50:55;;;;;;;8.68;5.25;;;;;;;;;;5027080;28;20061;-80
2021/12/25 10:53:22;;;;;;;7.80;4.82;;;;;;;;;;5026297;28;20033;-83
2021/12/25 10:55:48;;;;;;;7.32;4.30;;;;;;;;;;5025851;28;20425;-83
2021/12/25 10:58:17;;;;;;;11.23;5.07;;;;;;;;;;5047855;28;20071;-84
2021/12/25 11:00:43;;;;;;;7.63;4.85;;;;;;;;;;5062179;28;20460;-85
2021/12/25 11:03:11;;;;;;;8.20;4.68;;;;;;;;;;5064033;28;20040;-82
2021/12/25 11:05:37;;;;;;;9.02;4.65;;;;;;;;;;5027795;28;20101;-83
2021/12/25 11:08:09;;;;;;;9.05;5.22;;;;;;;;;;5043013;28;20068;-83
2021/12/25 11:10:42;;;;;;;7.75;4.72;;;;;;;;;;5046034;28;20432;-83
2021/12/25 11:13:19;;;;;;;10.68;5.43;;;;;;;;;;5031745;28;20033;-83
2021/12/25 11:15:45;;;;;;;9.63;4.82;;;;;;;;;;5054075;28;20036;-82
2021/12/25 11:18:12;;;;;;;8.88;5.22;;;;;;;;;;5062896;28;20051;-83
2021/12/25 11:20:39;;;;;;;8.77;4.50;;;;;;;;;;5049093;28;20060;-81
2021/12/25 11:23:06;;;;;;;9.93;4.50;;;;;;;;;;5026462;28;20079;-83
2021/12/25 11:25:32;;;;;;;9.07;4.75;;;;;;;;;;5043328;28;20041;-82
2021/12/25 11:27:59;;;;;;;6.30;4.60;;;;;;;;;;5043210;28;20147;-84
2021/12/25 11:30:26;;;;;;;7.30;4.25;;;;;;;;;;5043520;28;20399;-83
2021/12/25 11:32:52;;;;;;;8.30;4.60;;;;;;;;;;5061148;28;20174;-83
2021/12/25 11:35:19;;;;;;;8.50;4.55;;;;;;;;;;5026803;28;20094;-83
2021/12/25 11:37:45;;;;;;;7.18;4.43;;;;;;;;;;5028703;28;20063;-82
2021/12/25 11:40:11;;;;;;;7.95;4.75;;;;;;;;;;5028889;28;20047;-81
2021/12/25 11:42:45;;;;;;;6.82;4.18;;;;;;;;;;5046756;28;20045;-82
2021/12/25 11:45:12;;;;;;;7.05;3.92;;;;;;;;;;5029050;28;20041;-83
2021/12/25 11:47:38;;;;;;;5.88;4.13;;;;;;;;;;5026604;28;20060;-81
2021/12/25 11:50:15;;;;;;;8.63;3.88;;;;;;;;;;5040011;28;20032;-79
2021/12/25 11:52:55;;;;;;;7.38;4.10;;;;;;;;;;5023726;28;20459;-80
2021/12/25 11:58:37;;;;;;;7.00;3.72;;;;;;;;;;5039790;28;20354;-80
2021/12/25 12:01:18;;;;;;;7.45;4.22;;;;;;;;;;5022368;28;20480;-80
2021/12/25 12:03:46;;;;;;;10.23;3.53;;;;;;;;;;5022668;28;20370;-83
2021/12/25 12:06:13;;;;;;;8.43;4.00;;;;;;;;;;5040193;28;20564;-79
2021/12/25 12:08:54;;;;;;;8.30;3.90;;;;;;;;;;5023002;28;20061;-83
2021/12/25 12:11:27;;;;;;;5.60;3.45;;;;;;;;;;5023204;28;20048;-84
2021/12/25 12:14:11;;;;;;;6.13;2.83;;;;;;;;;;5023770;28;20038;-81
2021/12/25 12:16:41;;;;;;;6.95;3.70;;;;;;;;;;5024212;28;20369;-82
2021/12/25 12:19:26;;;;;;;6.85;3.30;;;;;;;;;;5039450;28;20103;-82
2021/12/25 12:21:52;;;;;;;5.40;2.85;;;;;;;;;;5049327;28;20038;-80
2021/12/25 12:24:38;;;;;;;5.78;2.45;;;;;;;;;;5049322;28;20037;-79
2021/12/25 12:27:05;;;;;;;5.35;2.53;;;;;;;;;;5023527;28;20408;-82
2021/12/25 12:29:40;;;;;;;6.22;3.03;;;;;;;;;;5027262;28;20080;-81
2021/12/25 12:32:06;;;;;;;4.78;2.58;;;;;;;;;;5026973;28;20098;-82
2021/12/25 12:34:35;;;;;;;5.60;2.60;;;;;;;;;;5025225;28;20038;-81
2021/12/25 12:37:16;;;;;;;4.65;2.50;;;;;;;;;;5029318;28;20482;-82
2021/12/25 12:39:43;;;;;;;5.28;3.03;;;;;;;;;;5053188;28;20053;-79
2021/12/25 12:42:12;;;;;;;5.55;2.83;;;;;;;;;;5043378;28;20067;-83
2021/12/25 12:44:38;;;;;;;10.10;4.65;;;;;;;;;;5025466;28;20499;-79
2021/12/25 12:47:05;;;;;;;6.93;3.60;;;;;;;;;;5027030;28;20077;-83
2021/12/25 12:49:34;;;;;;;7.75;3.92;;;;;;;;;;5026752;28;20037;-83
2021/12/25 12:52:14;;;;;;;6.32;2.58;;;;;;;;;;5027541;28;20094;-83
2021/12/25 12:54:48;;;;;;;4.63;2.22;;;;;;;;;;5028643;28;20045;-83
2021/12/25 12:57:20;;;;;;;5.97;2.60;;;;;;;;;;5028703;28;20046;-84
2021/12/25 12:59:47;;;;;;;5.30;2.23;;;;;;;;;;5028780;28;20129;-83
2021/12/25 13:02:13;;;;;;;5.65;2.80;;;;;;;;;;5043191;28;20041;-82
2021/12/25 13:04:46;;;;;;;4.22;2.60;;;;;;;;;;5041078;28;20475;-82
2021/12/25 13:07:13;;;;;;;5.60;2.40;;;;;;;;;;5025846;28;20038;-85
2021/12/25 13:09:44;;;;;;;4.30;2.38;;;;;;;;;;5025351;28;20038;-82
2021/12/25 13:12:23;;;;;;;4.85;3.20;;;;;;;;;;5025788;28;20038;-83
2021/12/25 13:15:02;;;;;;;4.05;2.65;;;;;;;;;;5025907;28;20056;-82
2021/12/25 13:17:28;;;;;;;4.75;2.40;;;;;;;;;;5024896;28;20076;-81
2021/12/25 13:19:54;;;;;;;3.58;2.33;;;;;;;;;;5027769;28;20038;-80
2021/12/25 13:22:20;;;;;;;4.03;2.53;;;;;;;;;;5049221;28;20041;-82
2021/12/25 13:24:47;;;;;;;4.45;2.45;;;;;;;;;;5035951;28;20076;-80
2021/12/25 13:27:17;;;;;;;7.70;2.90;;;;;;;;;;5047250;28;20034;-83
2021/12/25 13:29:43;;;;;;;5.25;2.50;;;;;;;;;;5046671;28;20037;-82
2021/12/25 13:32:09;;;;;;;8.43;2.88;;;;;;;;;;5028280;28;20030;-82
2021/12/25 13:34:36;;;;;;;3.70;2.50;;;;;;;;;;5025691;28;20044;-82
2021/12/25 13:37:04;;;;;;;5.18;2.60;;;;;;;;;;5041371;28;20041;-81
2021/12/25 13:39:32;;;;;;;4.90;2.80;;;;;;;;;;5040774;28;20091;-82
2021/12/25 13:42:09;;;;;;;5.55;3.00;;;;;;;;;;5025360;28;20037;-83
2021/12/25 13:44:35;;;;;;;5.15;2.40;;;;;;;;;;5042507;28;20122;-83
2021/12/25 13:47:02;;;;;;;6.18;3.25;;;;;;;;;;5038752;28;20149;-84
2021/12/25 13:49:28;;;;;;;4.53;2.70;;;;;;;;;;5038943;28;20423;-82
2021/12/25 13:51:54;;;;;;;4.22;2.85;;;;;;;;;;5022692;28;20369;-83
2021/12/25 13:54:20;;;;;;;6.38;3.00;;;;;;;;;;5022170;28;20045;-84
2021/12/25 13:56:50;;;;;;;5.82;2.78;;;;;;;;;;5038831;28;20445;-83
2021/12/25 13:59:16;;;;;;;3.47;2.10;;;;;;;;;;5038601;28;20034;-82
2021/12/25 14:01:42;;;;;;;6.50;3.20;;;;;;;;;;5022018;28;20074;-81
2021/12/25 14:04:08;;;;;;;5.78;2.30;;;;;;;;;;5022053;28;20034;-82
2021/12/25 14:06:34;;;;;;;4.68;2.40;;;;;;;;;;5022023;28;20446;-83
2021/12/25 14:09:01;;;;;;;6.38;2.50;;;;;;;;;;5021880;28;20085;-83
2021/12/25 14:11:28;;;;;;;5.38;2.60;;;;;;;;;;5021951;28;20394;-84
2021/12/25 14:13:54;;;;;;;4.30;2.30;;;;;;;;;;5038990;28;20116;-83
2021/12/25 14:16:21;;;;;;;4.68;2.60;;;;;;;;;;5037678;28;20125;-83
2021/12/25 14:18:47;;;;;;;7.10;2.85;;;;;;;;;;5037210;28;20112;-83
2021/12/25 14:21:14;;;;;;;5.88;3.13;;;;;;;;;;5022870;28;20093;-84
2021/12/25 14:23:40;;;;;;;4.93;2.75;;;;;;;;;;5038177;28;20050;-82
2021/12/25 14:26:06;;;;;;;6.28;2.90;;;;;;;;;;5019846;28;20068;-82
2021/12/25 14:28:33;;;;;;;5.18;2.75;;;;;;;;;;5019675;28;20470;-81
2021/12/25 14:31:04;;;;;;;5.45;3.13;;;;;;;;;;5036246;28;20045;-83
2021/12/25 14:33:30;;;;;;;5.43;2.65;;;;;;;;;;5019254;28;20038;-82
2021/12/25 14:35:56;;;;;;;3.30;2.00;;;;;;;;;;5019945;28;20034;-82
2021/12/25 14:38:22;;;;;;;6.85;3.17;;;;;;;;;;5021059;28;20061;-82
2021/12/25 14:40:49;;;;;;;4.32;2.22;;;;;;;;;;5019898;28;20049;-81
2021/12/25 14:43:20;;;;;;;4.10;2.10;;;;;;;;;;5036405;28;20041;-82
2021/12/25 14:45:47;;;;;;;5.40;2.22;;;;;;;;;;5035563;28;20057;-82
2021/12/25 14:48:13;;;;;;;5.25;2.42;;;;;;;;;;5038685;28;20041;-82
2021/12/25 14:50:39;;;;;;;4.78;2.33;;;;;;;;;;5039155;28;20338;-81
2021/12/25 14:53:10;;;;;;;7.63;3.00;;;;;;;;;;5041802;28;20088;-80
2021/12/25 14:55:37;;;;;;;6.32;2.97;;;;;;;;;;5024364;28;20048;-82
2021/12/25 14:58:17;;;;;;;5.07;2.28;;;;;;;;;;5039301;28;20080;-82
2021/12/25 15:00:43;;;;;;;4.63;2.13;;;;;;;;;;5022804;28;20041;-82
2021/12/25 15:03:14;;;;;;;4.95;2.22;;;;;;;;;;5022766;28;20388;-81
2021/12/25 15:05:40;;;;;;;8.18;2.20;;;;;;;;;;5022837;28;20052;-81
2021/12/25 15:08:17;;;;;;;4.18;1.98;;;;;;;;;;5022511;28;20049;-81
2021/12/25 15:10:43;;;;;;;3.53;1.65;;;;;;;;;;5038795;28;20044;-81
2021/12/25 15:13:13;;;;;;;2.30;1.42;;;;;;;;;;5022869;28;20041;-81
2021/12/25 15:15:47;;;;;;;4.00;1.98;;;;;;;;;;5039019;28;20029;-81
2021/12/25 15:18:19;;;;;;;4.03;1.85;;;;;;;;;;5022134;28;20116;-82
2021/12/25 15:20:45;;;;;;;4.53;1.60;;;;;;;;;;5023208;28;20041;-82
2021/12/25 15:23:18;;;;;;;3.60;1.70;;;;;;;;;;5023339;28;20056;-82
2021/12/25 15:25:44;;;;;;;4.95;2.40;;;;;;;;;;5022981;28;20103;-83
2021/12/25 15:28:10;;;;;;;10.45;3.90;;;;;;;;;;5023674;28;20038;-81
2021/12/25 15:30:37;;;;;;;7.10;3.45;;;;;;;;;;5025577;28;20453;-82
2021/12/25 15:33:08;;;;;;;8.95;3.35;;;;;;;;;;5026222;28;20120;-82
2021/12/25 15:35:35;;;;;;;6.45;2.80;;;;;;;;;;5022651;28;20053;-82
2021/12/25 15:38:01;;;;;;;6.18;2.40;;;;;;;;;;5023827;28;20045;-82
2021/12/25 15:40:30;;;;;;;6.18;2.15;;;;;;;;;;5026017;28;20073;-82
2021/12/25 15:42:56;;;;;;;6.07;2.55;;;;;;;;;;5045114;28;20037;-82
2021/12/25 15:45:22;;;;;;;6.22;2.72;;;;;;;;;;5038504;28;20334;-82
2021/12/25 15:47:48;;;;;;;5.80;2.38;;;;;;;;;;5021829;28;20054;-81
2021/12/25 15:50:15;;;;;;;5.13;2.45;;;;;;;;;;5022820;28;20068;-82
2021/12/25 15:52:41;;;;;;;7.38;3.38;;;;;;;;;;5022624;28;20417;-82
2021/12/25 15:55:07;;;;;;;5.05;2.17;;;;;;;;;;5042274;28;20445;-82